Time;durP1;ratioP1;P1;durP2;ratioP2;P2;SDS_P1;SDS_P2;PMS_P1;PMS_P2;Temp;Humidity;BMP_temperature;BMP_pressure;BME280_temperature;BME280_humidity;BME280_pressure;Samples;Min_cycle;Max_cycle;Signal;HPM_P1;HPM_P2
2024/02/06 00:01:13;;;;;;;1999.90;999.90;;;;;;;14.15;26.49;96434.28;5113809;28;20052;-66
2024/02/06 00:03:40;;;;;;;1999.90;999.90;;;;;;;14.15;25.87;96435.13;5113754;28;20102;-66
2024/02/06 00:06:08;;;;;;;1999.90;999.90;;;;;;;14.18;25.90;96443.78;5113805;28;20142;-67
2024/02/06 00:08:37;;;;;;;1999.90;999.90;;;;;;;14.13;25.95;96444.88;5113909;28;20047;-65
2024/02/06 00:11:07;;;;;;;1999.90;999.90;;;;;;;14.14;26.21;96450.97;5113843;28;20052;-64
2024/02/06 00:13:34;;;;;;;1999.90;999.90;;;;;;;14.16;25.56;96438.59;5113839;28;20043;-67
2024/02/06 00:16:02;;;;;;;1999.90;999.90;;;;;;;14.08;26.76;96444.28;5113375;28;20128;-64
2024/02/06 00:18:29;;;;;;;1999.90;999.90;;;;;;;13.95;28.94;96454.59;5113546;28;20135;-65
2024/02/06 00:20:56;;;;;;;1999.90;999.90;;;;;;;13.77;29.60;96451.16;5113586;28;20048;-67
2024/02/06 00:23:23;;;;;;;1999.90;999.90;;;;;;;13.66;30.01;96445.63;5113660;28;20069;-63
2024/02/06 00:25:50;;;;;;;1999.90;999.90;;;;;;;13.45;31.09;96445.78;5113555;28;20047;-67
2024/02/06 00:28:19;;;;;;;1999.90;999.90;;;;;;;13.31;31.28;96460.47;5113344;28;20078;-68
2024/02/06 00:30:46;;;;;;;1999.90;999.90;;;;;;;13.16;31.41;96450.72;5113527;28;20466;-65
2024/02/06 00:33:13;;;;;;;1999.90;999.90;;;;;;;12.80;32.21;96442.81;5113446;28;20078;-67
2024/02/06 00:35:40;;;;;;;1999.90;999.90;;;;;;;12.36;33.13;96446.63;5113448;28;20069;-67
2024/02/06 00:38:07;;;;;;;1999.90;999.90;;;;;;;12.20;33.45;96459.59;5113451;28;20131;-64
2024/02/06 00:40:34;;;;;;;1999.90;999.90;;;;;;;12.12;34.05;96458.19;5113444;28;20131;-63
2024/02/06 00:43:01;;;;;;;1999.90;999.90;;;;;;;12.07;33.94;96467.19;5113281;28;20083;-63
2024/02/06 00:45:29;;;;;;;1999.90;999.90;;;;;;;11.92;33.93;96469.50;5113277;28;20047;-66
2024/02/06 00:47:56;;;;;;;1999.90;999.90;;;;;;;11.59;35.06;96476.16;5113380;28;20075;-64
2024/02/06 00:50:23;;;;;;;1999.90;999.90;;;;;;;11.34;34.90;96472.00;5113176;28;20083;-66
2024/02/06 00:52:50;;;;;;;1999.90;999.90;;;;;;;11.24;35.64;96461.06;5113262;28;20082;-64
2024/02/06 00:55:17;;;;;;;1999.90;999.90;;;;;;;11.09;35.76;96466.94;5113066;28;20051;-66
2024/02/06 00:57:44;;;;;;;1999.90;999.90;;;;;;;10.92;36.30;96463.22;5113135;28;20062;-69
2024/02/06 01:00:14;;;;;;;1999.90;999.90;;;;;;;10.72;36.59;96472.72;5113243;28;20138;-65
2024/02/06 01:02:42;;;;;;;1999.90;999.90;;;;;;;10.44;36.55;96473.78;5113126;28;20147;-69
2024/02/06 01:05:09;;;;;;;1999.90;999.90;;;;;;;10.17;36.94;96470.47;5113216;28;20513;-65
2024/02/06 01:07:36;;;;;;;1999.90;999.90;;;;;;;9.88;37.91;96472.38;5113135;28;20100;-62
2024/02/06 01:10:04;;;;;;;1999.90;999.90;;;;;;;9.78;37.42;96470.09;5113119;28;20043;-69
2024/02/06 01:12:31;;;;;;;1999.90;999.90;;;;;;;9.64;37.69;96461.91;5113227;28;20513;-63
2024/02/06 01:14:59;;;;;;;1999.90;999.90;;;;;;;9.43;38.43;96464.38;5113016;28;20127;-64
2024/02/06 01:17:26;;;;;;;1999.90;999.90;;;;;;;9.32;38.63;96460.38;5113018;28;20048;-63
2024/02/06 01:19:54;;;;;;;1999.90;999.90;;;;;;;9.00;39.53;96458.84;5112992;28;20138;-68
2024/02/06 01:22:21;;;;;;;1999.90;999.90;;;;;;;8.85;40.79;96453.22;5112994;28;20524;-65
2024/02/06 01:24:48;;;;;;;1999.90;999.90;;;;;;;8.62;40.72;96453.94;5112902;28;20489;-65
2024/02/06 01:27:15;;;;;;;1999.90;999.90;;;;;;;8.40;41.57;96460.66;5112773;28;20469;-64
2024/02/06 01:29:42;;;;;;;1999.90;999.90;;;;;;;8.26;40.96;96470.66;5115995;28;20043;-63
2024/02/06 01:32:09;;;;;;;1999.90;999.90;;;;;;;7.91;41.69;96456.00;5116696;28;20482;-66
2024/02/06 01:34:36;;;;;;;1999.90;999.90;;;;;;;7.71;42.42;96447.00;5116708;28;20051;-66
2024/02/06 01:37:04;;;;;;;1999.90;999.90;;;;;;;7.68;42.81;96469.69;5116682;28;20134;-66
2024/02/06 01:39:31;;;;;;;1999.90;999.90;;;;;;;7.66;42.91;96458.44;5116808;28;20470;-64
2024/02/06 01:41:58;;;;;;;1999.90;999.90;;;;;;;7.63;43.17;96462.00;5116570;28;20043;-62
2024/02/06 01:44:27;;;;;;;1999.90;999.90;;;;;;;7.56;43.21;96457.84;5116636;28;20044;-66
2024/02/06 01:46:55;;;;;;;1999.90;999.90;;;;;;;7.49;43.18;96459.75;5116510;28;20043;-66
2024/02/06 01:49:22;;;;;;;1999.90;999.90;;;;;;;7.30;42.75;96459.41;5116356;28;20044;-63
2024/02/06 01:51:50;;;;;;;1999.90;999.90;;;;;;;7.19;42.83;96444.91;5116372;28;20101;-67
2024/02/06 01:54:20;;;;;;;1999.90;999.90;;;;;;;7.03;43.53;96456.59;5116528;28;20052;-63
2024/02/06 01:56:48;;;;;;;1999.90;999.90;;;;;;;6.88;43.97;96469.09;5116332;28;20522;-63
2024/02/06 01:59:16;;;;;;;1999.90;999.90;;;;;;;6.80;43.86;96458.03;5116340;28;20130;-64
2024/02/06 02:01:43;;;;;;;1999.90;999.90;;;;;;;6.70;44.99;96470.41;5116245;28;20560;-64
2024/02/06 02:04:10;;;;;;;1999.90;999.90;;;;;;;6.53;44.55;96470.81;5116107;28;20088;-63
2024/02/06 02:06:38;;;;;;;1999.90;999.90;;;;;;;6.46;44.51;96467.47;5116175;28;20067;-63
2024/02/06 02:09:05;;;;;;;1999.90;999.90;;;;;;;6.44;44.16;96469.25;5116095;28;20073;-67
2024/02/06 02:11:33;;;;;;;1999.90;999.90;;;;;;;6.42;44.00;96469.28;5116097;28;20044;-64
2024/02/06 02:14:00;;;;;;;1999.90;999.90;;;;;;;6.34;44.24;96475.53;5115946;28;20468;-68
2024/02/06 02:16:27;;;;;;;1999.90;999.90;;;;;;;6.30;43.84;96460.00;5115817;28;20093;-66
2024/02/06 02:18:58;;;;;;;1999.90;999.90;;;;;;;6.13;44.37;96468.19;5115929;28;20503;-64
2024/02/06 02:21:29;;;;;;;1999.90;999.90;;;;;;;6.04;43.94;96471.84;5115838;28;20477;-64
2024/02/06 02:23:56;;;;;;;1999.90;999.90;;;;;;;6.21;43.32;96486.22;5115797;28;20101;-68
2024/02/06 02:26:24;;;;;;;1999.90;999.90;;;;;;;6.39;44.31;96481.50;5115480;28;20055;-63
2024/02/06 02:28:52;;;;;;;1999.90;999.90;;;;;;;6.32;44.24;96485.97;5115676;28;20054;-65
2024/02/06 02:31:21;;;;;;;1999.90;999.90;;;;;;;6.34;43.72;96485.94;5115811;28;20473;-65
2024/02/06 02:33:48;;;;;;;1999.90;999.90;;;;;;;6.47;43.21;96496.94;5115696;28;20047;-63
2024/02/06 02:36:15;;;;;;;1999.90;999.90;;;;;;;6.87;40.42;96490.81;5115440;28;20069;-63
2024/02/06 02:38:44;;;;;;;1999.90;999.90;;;;;;;7.24;39.13;96501.19;5115459;28;20493;-67
2024/02/06 02:41:11;;;;;;;1999.90;999.90;;;;;;;7.62;37.64;96495.88;5115385;28;20039;-68
2024/02/06 02:43:38;;;;;;;1999.90;999.90;;;;;;;8.13;35.58;96504.88;5115281;28;20079;-63
2024/02/06 02:46:05;;;;;;;1999.90;999.90;;;;;;;8.67;35.56;96506.84;5115302;28;20134;-68
2024/02/06 02:48:32;;;;;;;1999.90;999.90;;;;;;;8.92;35.35;96512.13;5115202;28;20570;-65
2024/02/06 02:50:59;;;;;;;1999.90;999.90;;;;;;;9.05;35.16;96515.19;5115244;28;20130;-64
2024/02/06 02:53:26;;;;;;;1999.90;999.90;;;;;;;9.18;34.12;96520.84;5115278;28;20039;-63
2024/02/06 02:55:56;;;;;;;1999.90;999.90;;;;;;;9.60;33.14;96513.38;5115132;28;20048;-63
2024/02/06 02:58:23;;;;;;;1999.90;999.90;;;;;;;9.94;33.03;96516.59;5115186;28;20558;-66
2024/02/06 03:00:50;;;;;;;1999.90;999.90;;;;;;;10.26;32.33;96513.72;5114922;28;20055;-65
2024/02/06 03:03:17;;;;;;;1999.90;999.90;;;;;;;10.53;31.76;96526.69;5114987;28;20452;-67
2024/02/06 03:05:45;;;;;;;1999.90;999.90;;;;;;;10.78;31.54;96536.22;5114907;28;20047;-67
2024/02/06 03:08:12;;;;;;;1999.90;999.90;;;;;;;10.94;31.10;96537.31;5114812;28;20051;-66
2024/02/06 03:10:38;;;;;;;1999.90;999.90;;;;;;;11.05;31.35;96528.19;5114899;28;20049;-65
2024/02/06 03:13:07;;;;;;;1999.90;999.90;;;;;;;11.02;33.64;96538.75;5114584;28;20051;-68
2024/02/06 03:15:34;;;;;;;1999.90;999.90;;;;;;;10.90;33.58;96555.81;5114843;28;20126;-64
2024/02/06 03:18:01;;;;;;;1999.90;999.90;;;;;;;10.80;33.43;96560.53;5114658;28;20130;-64
2024/02/06 03:20:28;;;;;;;1999.90;999.90;;;;;;;10.67;35.23;96553.16;5114686;28;20082;-65
2024/02/06 03:22:55;;;;;;;1999.90;999.90;;;;;;;10.57;36.04;96557.06;5114743;28;20093;-65
2024/02/06 03:25:22;;;;;;;1999.90;999.90;;;;;;;10.33;37.27;96563.09;5114652;28;20126;-66
2024/02/06 03:27:50;;;;;;;1999.90;999.90;;;;;;;10.22;37.48;96558.28;5114399;28;20052;-65
2024/02/06 03:30:19;;;;;;;1999.90;999.90;;;;;;;10.07;38.11;96556.19;5114557;28;20046;-68
2024/02/06 03:32:46;;;;;;;1999.90;999.90;;;;;;;10.02;38.50;96555.53;5114407;28;20047;-66
2024/02/06 03:35:14;;;;;;;1999.90;999.90;;;;;;;9.96;38.81;96559.19;5114448;28;20256;-63
2024/02/06 03:37:41;;;;;;;1999.90;999.90;;;;;;;9.89;39.10;96566.41;5114368;28;20054;-67
2024/02/06 03:40:10;;;;;;;1999.90;999.90;;;;;;;9.78;39.15;96555.47;5114263;28;20057;-62
2024/02/06 03:42:37;;;;;;;1999.90;999.90;;;;;;;9.73;38.94;96566.91;5114262;28;20484;-68
2024/02/06 03:45:05;;;;;;;1999.90;999.90;;;;;;;9.67;39.03;96576.72;5114323;28;20043;-64
2024/02/06 03:47:34;;;;;;;1999.90;999.90;;;;;;;9.57;39.36;96569.19;5114220;28;20082;-65
2024/02/06 03:50:01;;;;;;;1999.90;999.90;;;;;;;9.48;40.05;96559.91;5114160;28;20075;-65
2024/02/06 03:52:28;;;;;;;1999.90;999.90;;;;;;;9.40;40.29;96561.06;5113819;28;20057;-66
2024/02/06 03:54:55;;;;;;;1999.90;999.90;;;;;;;9.37;40.51;96569.88;5114118;28;20130;-64
2024/02/06 03:57:22;;;;;;;1999.90;999.90;;;;;;;9.30;40.57;96571.81;5114059;28;20116;-67
2024/02/06 03:59:49;;;;;;;1999.90;999.90;;;;;;;9.30;40.67;96578.81;5114035;28;20049;-65
2024/02/06 04:02:17;;;;;;;1999.90;999.90;;;;;;;9.34;41.07;96580.41;5113903;28;20050;-65
2024/02/06 04:04:47;;;;;;;1999.90;999.90;;;;;;;9.27;41.19;96587.56;5114036;28;20108;-67
2024/02/06 04:07:15;;;;;;;1999.90;999.90;;;;;;;9.20;41.27;96580.84;5113918;28;20054;-65
2024/02/06 04:09:42;;;;;;;1999.90;999.90;;;;;;;9.13;41.39;96589.78;5113780;28;20039;-65
2024/02/06 04:12:10;;;;;;;1999.90;999.90;;;;;;;9.10;41.67;96591.56;5113908;28;20244;-67
2024/02/06 04:14:40;;;;;;;1999.90;999.90;;;;;;;9.01;41.56;96580.56;5113886;28;20048;-67
2024/02/06 04:17:07;;;;;;;1999.90;999.90;;;;;;;8.81;41.95;96579.41;5113679;28;20401;-65
2024/02/06 04:19:34;;;;;;;1999.90;999.90;;;;;;;8.70;41.87;96582.38;5113884;28;20051;-63
2024/02/06 04:22:02;;;;;;;1999.90;999.90;;;;;;;8.66;42.38;96585.94;5113752;28;20055;-64
2024/02/06 04:24:29;;;;;;;1999.90;999.90;;;;;;;8.46;42.53;96588.22;5113725;28;20043;-65
2024/02/06 04:26:56;;;;;;;1999.90;999.90;;;;;;;8.41;42.61;96591.84;5113344;28;20119;-63
2024/02/06 04:29:23;;;;;;;1999.90;999.90;;;;;;;8.42;42.56;96591.81;5113501;28;20043;-66
2024/02/06 04:31:50;;;;;;;1999.90;999.90;;;;;;;8.37;42.70;96601.50;5113655;28;20052;-63
2024/02/06 04:34:17;;;;;;;1999.90;999.90;;;;;;;8.33;42.68;96608.56;5113497;28;20040;-66
2024/02/06 04:36:44;;;;;;;1999.90;999.90;;;;;;;8.32;42.59;96611.22;5113420;28;20140;-67
2024/02/06 04:39:13;;;;;;;1999.90;999.90;;;;;;;8.24;43.18;96605.38;5113378;28;20044;-65
2024/02/06 04:41:40;;;;;;;1999.90;999.90;;;;;;;8.15;43.22;96601.25;5113424;28;20140;-66
2024/02/06 04:44:07;;;;;;;1999.90;999.90;;;;;;;8.02;43.52;96609.41;5113269;28;20054;-68
2024/02/06 04:46:34;;;;;;;1999.90;999.90;;;;;;;7.95;43.82;96613.06;5113480;28;20477;-64
2024/02/06 04:49:02;;;;;;;1999.90;999.90;;;;;;;7.86;43.66;96613.31;5113341;28;20051;-64
2024/02/06 04:51:29;;;;;;;1999.90;999.90;;;;;;;7.66;44.14;96620.75;5113236;28;20044;-65
2024/02/06 04:53:56;;;;;;;1999.90;999.90;;;;;;;7.64;44.48;96613.84;5113427;28;20164;-66
2024/02/06 04:56:25;;;;;;;1999.90;999.90;;;;;;;7.52;45.12;96615.88;5113470;28;20417;-64
2024/02/06 04:58:52;;;;;;;1999.90;999.90;;;;;;;7.46;45.08;96613.41;5113263;28;20414;-67
2024/02/06 05:01:21;;;;;;;1999.90;999.90;;;;;;;7.35;45.35;96616.28;5113197;28;20082;-64
2024/02/06 05:03:48;;;;;;;1999.90;999.90;;;;;;;7.14;45.79;96623.72;5115030;28;20483;-65
2024/02/06 05:06:16;;;;;;;1999.90;999.90;;;;;;;7.13;46.59;96619.38;5117333;28;20056;-66
2024/02/06 05:08:43;;;;;;;1999.90;999.90;;;;;;;7.01;46.23;96619.69;5117175;28;20047;-66
2024/02/06 05:11:12;;;;;;;1999.90;999.90;;;;;;;6.91;46.23;96624.22;5117275;28;20478;-67
2024/02/06 05:13:42;;;;;;;1999.90;999.90;;;;;;;6.76;46.44;96612.38;5117306;28;20049;-65
2024/02/06 05:16:10;;;;;;;1999.90;999.90;;;;;;;6.72;46.34;96621.16;5117241;28;20409;-65
2024/02/06 05:18:38;;;;;;;1999.90;999.90;;;;;;;6.66;46.67;96624.75;5117141;28;20079;-68
2024/02/06 05:21:05;;;;;;;1999.90;999.90;;;;;;;6.47;46.79;96624.28;5117088;28;20047;-67
2024/02/06 05:23:32;;;;;;;1999.90;999.90;;;;;;;6.39;46.60;96621.81;5117015;28;20047;-62
2024/02/06 05:26:00;;;;;;;1999.90;999.90;;;;;;;6.25;47.16;96622.06;5116900;28;20051;-65
2024/02/06 05:28:27;;;;;;;1999.90;999.90;;;;;;;5.98;47.94;96626.88;5116676;28;20122;-65
2024/02/06 05:30:56;;;;;;;1999.90;999.90;;;;;;;5.75;48.22;96618.63;5116864;28;20130;-66
2024/02/06 05:33:24;;;;;;;1999.90;999.90;;;;;;;5.66;48.55;96613.59;5116854;28;20500;-68
2024/02/06 05:35:51;;;;;;;1999.90;999.90;;;;;;;5.56;48.61;96618.06;5116866;28;20047;-67
2024/02/06 05:38:18;;;;;;;1999.90;999.90;;;;;;;5.37;49.32;96618.41;5116524;28;20062;-66
2024/02/06 05:40:45;;;;;;;1999.90;999.90;;;;;;;5.37;48.88;96626.19;5116618;28;20043;-66
2024/02/06 05:43:13;;;;;;;1999.90;999.90;;;;;;;5.39;48.65;96619.22;5116882;28;20047;-66
2024/02/06 05:45:41;;;;;;;1999.90;999.90;;;;;;;5.30;48.89;96625.41;5116560;28;20078;-63
2024/02/06 05:48:10;;;;;;;1999.90;999.90;;;;;;;5.25;49.77;96618.56;5116563;28;20043;-65
2024/02/06 05:50:37;;;;;;;1999.90;999.90;;;;;;;5.18;48.94;96618.66;5116620;28;20044;-62
2024/02/06 05:53:05;;;;;;;1999.90;999.90;;;;;;;5.18;49.07;96623.84;5116495;28;20054;-69
2024/02/06 05:55:32;;;;;;;1999.90;999.90;;;;;;;5.18;48.80;96623.00;5116510;28;20105;-67
2024/02/06 05:57:59;;;;;;;1999.90;999.90;;;;;;;5.26;48.98;96625.47;5116152;28;20059;-62
2024/02/06 06:00:27;;;;;;;1999.90;999.90;;;;;;;5.41;48.60;96634.75;5116281;28;20047;-65
2024/02/06 06:02:55;;;;;;;1999.90;999.90;;;;;;;5.49;48.70;96630.31;5116317;28;20127;-64
2024/02/06 06:05:24;;;;;;;1999.90;999.90;;;;;;;5.49;48.46;96619.94;5116225;28;20051;-64
2024/02/06 06:07:51;;;;;;;1999.90;999.90;;;;;;;5.59;48.40;96627.53;5116122;28;20482;-62
2024/02/06 06:10:19;;;;;;;1999.90;999.90;;;;;;;5.86;47.56;96620.16;5116006;28;20044;-64
2024/02/06 06:12:46;;;;;;;1999.90;999.90;;;;;;;6.30;47.34;96621.09;5116171;28;20142;-66
2024/02/06 06:15:13;;;;;;;1999.90;999.90;;;;;;;6.76;46.51;96620.19;5115704;28;20134;-63
2024/02/06 06:17:40;;;;;;;1999.90;999.90;;;;;;;7.52;45.56;96615.00;5115834;28;20075;-65
2024/02/06 06:20:08;;;;;;;1999.90;999.90;;;;;;;8.65;43.65;96616.41;5115901;28;20130;-65
2024/02/06 06:22:37;;;;;;;1999.90;999.90;;;;;;;9.78;41.14;96623.41;5115955;28;20101;-64
2024/02/06 06:25:06;;;;;;;1999.90;999.90;;;;;;;10.92;39.69;96624.63;5115816;28;20047;-66
2024/02/06 06:27:33;;;;;;;1999.90;999.90;;;;;;;11.95;37.47;96626.66;5115498;28;20044;-64
2024/02/06 06:30:00;;;;;;;1999.90;999.90;;;;;;;13.10;36.23;96619.94;5115708;28;20043;-64
2024/02/06 06:32:27;;;;;;;1999.90;999.90;;;;;;;14.41;34.08;96618.81;5115782;28;20044;-68
2024/02/06 06:34:54;;;;;;;1999.90;999.90;;;;;;;15.66;31.80;96622.69;5115754;28;20192;-65
2024/02/06 06:37:21;;;;;;;1999.90;999.90;;;;;;;17.04;29.95;96613.59;5115680;28;20090;-62
2024/02/06 06:39:48;;;;;;;1999.90;999.90;;;;;;;18.46;27.98;96622.13;5115721;28;20463;-64
2024/02/06 06:42:16;;;;;;;1999.90;999.90;;;;;;;19.59;26.12;96628.41;5115599;28;20126;-67
2024/02/06 06:44:43;;;;;;;1999.90;999.90;;;;;;;20.60;25.08;96629.81;5115534;28;20421;-65
2024/02/06 06:47:11;;;;;;;1999.90;999.90;;;;;;;21.31;24.41;96628.75;5115493;28;20055;-65
2024/02/06 06:49:38;;;;;;;1999.90;999.90;;;;;;;21.77;23.61;96623.34;5115478;28;20069;-66
2024/02/06 06:52:07;;;;;;;1999.90;999.90;;;;;;;22.29;23.72;96626.13;5115236;28;20050;-68
2024/02/06 06:54:34;;;;;;;1999.90;999.90;;;;;;;22.72;22.35;96623.44;5115388;28;20083;-66
2024/02/06 06:57:03;;;;;;;1999.90;999.90;;;;;;;23.08;22.52;96628.34;5115064;28;20050;-66
2024/02/06 06:59:31;;;;;;;1999.90;999.90;;;;;;;23.29;21.68;96625.63;5115234;28;20047;-66
2024/02/06 07:01:58;;;;;;;1999.90;999.90;;;;;;;23.43;21.77;96629.75;5114919;28;20047;-68
2024/02/06 07:04:26;;;;;;;1999.90;999.90;;;;;;;23.57;20.79;96638.34;5114988;28;20048;-64
2024/02/06 07:06:53;;;;;;;1999.90;999.90;;;;;;;23.23;22.08;96637.69;5115067;28;20468;-67
2024/02/06 07:09:21;;;;;;;1999.90;999.90;;;;;;;23.00;21.89;96628.19;5114984;28;20043;-65
2024/02/06 07:11:48;;;;;;;1999.90;999.90;;;;;;;23.21;21.11;96638.81;5115040;28;20051;-66
2024/02/06 07:14:16;;;;;;;1999.90;999.90;;;;;;;23.65;22.13;96646.50;5114880;28;20411;-67
2024/02/06 07:16:43;;;;;;;1999.90;999.90;;;;;;;24.04;20.97;96645.69;5114788;28;20112;-67
2024/02/06 07:19:10;;;;;;;1999.90;999.90;;;;;;;24.73;20.62;96648.28;5114678;28;20570;-67
2024/02/06 07:21:37;;;;;;;1999.90;999.90;;;;;;;25.91;19.67;96654.06;5114796;28;20070;-65
2024/02/06 07:24:05;;;;;;;1999.90;999.90;;;;;;;26.97;19.08;96646.16;5114669;28;20054;-63
2024/02/06 07:26:32;;;;;;;51.25;48.15;;;;;;;27.52;18.61;96655.81;5113518;28;20067;-66
2024/02/06 07:28:59;;;;;;;52.30;49.05;;;;;;;28.05;17.46;96659.13;5114608;28;20093;-64
2024/02/06 07:31:28;;;;;;;47.95;44.58;;;;;;;28.58;16.58;96660.69;5114516;28;20075;-64
2024/02/06 07:33:55;;;;;;;49.88;46.58;;;;;;;28.80;16.04;96659.13;5114456;28;20054;-66
2024/02/06 07:36:22;;;;;;;57.60;54.08;;;;;;;29.06;15.64;96650.03;5114437;28;20054;-69
2024/02/06 07:38:49;;;;;;;52.38;49.17;;;;;;;29.61;14.43;96633.13;5114356;28;20130;-65
2024/02/06 07:41:16;;;;;;;42.65;39.75;;;;;;;30.18;14.43;96641.88;5114422;28;20147;-64
2024/02/06 07:43:43;;;;;;;37.63;34.80;;;;;;;30.72;12.20;96639.22;5114386;28;20043;-67
2024/02/06 07:59:19;;;;;;;31.40;29.30;;;;;;;30.32;12.46;96605.19;5152246;27;20742;-65
2024/02/06 08:01:47;;;;;;;32.42;29.88;;;;;;;31.36;11.54;96610.03;5152113;27;20057;-63
2024/02/06 08:04:14;;;;;;;32.25;30.05;;;;;;;31.85;11.25;96613.06;5152000;27;20470;-64
2024/02/06 08:06:41;;;;;;;30.17;28.08;;;;;;;30.86;11.19;96600.66;5151704;27;20484;-66
2024/02/06 08:09:09;;;;;;;31.88;29.60;;;;;;;29.86;12.28;96608.75;5151802;27;20054;-67
2024/02/06 08:11:36;;;;;;;33.50;31.27;;;;;;;29.28;13.17;96604.50;5152035;27;20047;-68
2024/02/06 08:14:03;;;;;;;31.85;29.55;;;;;;;29.87;12.96;96607.72;5151727;27;20051;-64
2024/02/06 08:16:32;;;;;;;34.13;31.58;;;;;;;30.24;11.26;96599.88;5151736;27;20047;-65
2024/02/06 08:18:58;;;;;;;33.88;31.75;;;;;;;30.78;11.31;96606.13;5151543;27;20406;-68
2024/02/06 08:21:25;;;;;;;34.45;32.05;;;;;;;31.10;11.24;96593.28;5151731;27;20049;-67
2024/02/06 08:23:54;;;;;;;38.67;36.17;;;;;;;31.33;11.36;96599.56;5151533;27;20046;-65
2024/02/06 08:26:21;;;;;;;44.17;40.80;;;;;;;30.77;12.22;96604.44;5151740;27;20074;-65
2024/02/06 08:28:48;;;;;;;59.50;55.65;;;;;;;29.30;11.78;96598.94;5151477;27;20100;-66
2024/02/06 08:31:16;;;;;;;80.70;75.80;;;;;;;28.62;13.42;96613.59;5151404;27;20074;-68
2024/02/06 08:33:44;;;;;;;113.05;106.13;;;;;;;28.04;12.31;96613.63;5151314;27;20130;-68
2024/02/06 08:36:14;;;;;;;113.50;106.13;;;;;;;27.21;13.38;96614.28;5151351;27;20039;-62
2024/02/06 08:38:41;;;;;;;113.82;107.05;;;;;;;26.28;14.44;96616.53;5151313;27;20057;-68
2024/02/06 08:41:08;;;;;;;82.93;78.07;;;;;;;25.70;14.77;96614.19;5151288;27;20058;-65
2024/02/06 08:43:35;;;;;;;47.28;43.53;;;;;;;24.83;13.90;96610.00;5151077;27;20079;-66
2024/02/06 08:46:02;;;;;;;41.40;38.58;;;;;;;24.03;15.50;96613.78;5151199;27;20047;-64
2024/02/06 08:48:30;;;;;;;49.92;46.80;;;;;;;23.48;16.35;96613.34;5150854;27;20061;-68
2024/02/06 08:50:59;;;;;;;44.65;41.85;;;;;;;23.39;16.15;96606.16;5150769;27;20051;-64
2024/02/06 08:53:26;;;;;;;46.30;43.10;;;;;;;23.18;17.18;96610.56;5151013;27;20396;-63
2024/02/06 08:55:53;;;;;;;51.17;47.92;;;;;;;23.06;17.22;96598.31;5150949;27;20043;-68
2024/02/06 08:58:20;;;;;;;1999.90;999.90;;;;;;;22.97;16.17;96598.13;5160751;27;20455;-66
2024/02/06 09:00:47;;;;;;;1999.90;999.90;;;;;;;23.07;17.01;96597.31;5157830;27;20498;-65
2024/02/06 09:03:14;;;;;;;1999.90;999.90;;;;;;;23.15;15.94;96602.81;5157733;27;20078;-66
2024/02/06 09:05:41;;;;;;;1999.90;999.90;;;;;;;23.08;17.23;96594.53;5157807;27;20126;-64
2024/02/06 09:08:10;;;;;;;1999.90;999.90;;;;;;;22.93;16.82;96599.38;5157600;27;20055;-67
2024/02/06 09:10:37;;;;;;;1999.90;999.90;;;;;;;22.70;16.53;96604.06;5157587;27;20057;-65
2024/02/06 09:13:04;;;;;;;1999.90;999.90;;;;;;;22.64;17.14;96613.47;5157487;27;20046;-65
2024/02/06 09:15:31;;;;;;;1999.90;999.90;;;;;;;22.58;16.78;96606.81;5157463;27;20092;-68
2024/02/06 09:18:00;;;;;;;1999.90;999.90;;;;;;;22.59;16.42;96623.66;5157272;27;20554;-64
2024/02/06 09:20:27;;;;;;;1999.90;999.90;;;;;;;22.50;16.98;96611.09;5157458;27;20492;-67
2024/02/06 09:22:55;;;;;;;1999.90;999.90;;;;;;;22.50;16.83;96614.59;5157423;27;20475;-64
2024/02/06 09:25:24;;;;;;;1999.90;999.90;;;;;;;22.52;16.64;96623.31;5157300;27;20057;-68
2024/02/06 09:27:51;;;;;;;1999.90;999.90;;;;;;;22.56;17.30;96613.22;5157114;27;20398;-68
2024/02/06 09:30:18;;;;;;;1999.90;999.90;;;;;;;22.55;16.92;96630.19;5156942;27;20142;-63
2024/02/06 09:32:45;;;;;;;1999.90;999.90;;;;;;;22.40;17.04;96611.03;5157030;27;20433;-62
2024/02/06 09:35:12;;;;;;;1999.90;999.90;;;;;;;22.41;19.96;96612.72;5156996;27;20479;-67
2024/02/06 09:37:39;;;;;;;1999.90;999.90;;;;;;;22.39;20.36;96614.69;5157036;27;20055;-69
2024/02/06 09:40:07;;;;;;;1999.90;999.90;;;;;;;22.38;20.50;96597.84;5157009;27;20046;-64
2024/02/06 09:42:36;;;;;;;1999.90;999.90;;;;;;;22.40;18.29;96603.03;5156879;27;20050;-66
2024/02/06 09:45:04;;;;;;;1999.90;999.90;;;;;;;22.57;17.45;96591.81;5156960;27;20039;-65
2024/02/06 09:47:31;;;;;;;1999.90;999.90;;;;;;;22.71;17.04;96605.75;5156904;27;20050;-66
2024/02/06 09:50:00;;;;;;;1999.90;999.90;;;;;;;22.65;17.36;96603.63;5157093;27;20130;-66
2024/02/06 09:52:31;;;;;;;1999.90;999.90;;;;;;;22.53;16.75;96603.69;5156910;27;20051;-68
2024/02/06 09:55:01;;;;;;;1999.90;999.90;;;;;;;22.42;16.38;96590.41;5156935;27;20053;-64
2024/02/06 09:57:29;;;;;;;1999.90;999.90;;;;;;;22.25;16.76;96591.88;5156531;27;20133;-65
2024/02/06 10:00:12;;;;;;;1999.90;999.90;;;;;;;22.24;16.95;96591.03;5156708;27;20043;-65
2024/02/06 10:02:43;;;;;;;1999.90;999.90;;;;;;;22.21;17.80;96580.63;5156553;27;20050;-66
2024/02/06 10:05:16;;;;;;;1999.90;999.90;;;;;;;22.16;17.07;96583.69;5156506;27;20074;-65
2024/02/06 10:07:46;;;;;;;1999.90;999.90;;;;;;;22.08;16.92;96589.69;5156375;27;20089;-63
2024/02/06 10:10:14;;;;;;;1999.90;999.90;;;;;;;21.94;16.73;96576.66;5155625;27;20149;-62
2024/02/06 10:12:44;;;;;;;1999.90;999.90;;;;;;;22.04;17.27;96576.75;5156314;27;20122;-62
2024/02/06 10:15:17;;;;;;;1999.90;999.90;;;;;;;21.98;16.66;96582.59;5156367;27;20046;-67
2024/02/06 10:17:44;;;;;;;1999.90;999.90;;;;;;;22.03;17.45;96581.22;5156227;27;20047;-67
2024/02/06 10:20:13;;;;;;;1999.90;999.90;;;;;;;22.00;17.02;96580.66;5156047;27;20129;-68
2024/02/06 10:22:41;;;;;;;1999.90;999.90;;;;;;;22.06;16.94;96572.97;5156168;27;20090;-65
2024/02/06 10:25:09;;;;;;;1999.90;999.90;;;;;;;22.07;16.85;96561.34;5156121;27;20452;-66
2024/02/06 10:27:37;;;;;;;1999.90;999.90;;;;;;;22.18;17.65;96562.22;5155987;27;20549;-67
2024/02/06 10:30:06;;;;;;;1999.90;999.90;;;;;;;22.27;16.26;96560.63;5156089;27;20099;-69
2024/02/06 10:32:35;;;;;;;1999.90;999.90;;;;;;;22.21;16.93;96556.66;5155947;27;20046;-66
2024/02/06 10:35:03;;;;;;;1999.90;999.90;;;;;;;22.18;16.40;96551.59;5156112;27;20042;-64
2024/02/06 10:37:34;;;;;;;1999.90;999.90;;;;;;;22.18;16.79;96563.09;5155868;27;20046;-66
2024/02/06 10:40:01;;;;;;;1999.90;999.90;;;;;;;22.29;17.14;96554.19;5156071;27;20099;-66
2024/02/06 10:42:28;;;;;;;1999.90;999.90;;;;;;;22.28;16.59;96554.31;5155751;27;20099;-66
2024/02/06 10:44:56;;;;;;;1999.90;999.90;;;;;;;22.11;16.16;96540.63;5155901;27;20066;-63
2024/02/06 10:47:23;;;;;;;1999.90;999.90;;;;;;;22.12;16.31;96554.78;5155610;27;20043;-64
2024/02/06 10:50:02;;;;;;;1999.90;999.90;;;;;;;22.20;16.51;96539.00;5155695;27;20046;-64
2024/02/06 10:52:29;;;;;;;1999.90;999.90;;;;;;;22.25;17.23;96544.78;5155636;27;20038;-69
2024/02/06 10:54:56;;;;;;;1999.90;999.90;;;;;;;22.33;16.38;96539.63;5155534;27;20052;-66
2024/02/06 10:57:27;;;;;;;1999.90;999.90;;;;;;;22.22;16.28;96545.88;5155167;27;20050;-67
2024/02/06 11:00:01;;;;;;;1999.90;999.90;;;;;;;22.22;16.39;96537.06;5155445;27;20047;-63
2024/02/06 11:02:31;;;;;;;1999.90;999.90;;;;;;;22.09;16.66;96521.25;5155570;27;20095;-66
2024/02/06 11:05:10;;;;;;;1999.90;999.90;;;;;;;22.19;16.42;96521.34;5155511;27;20043;-63
2024/02/06 11:07:46;;;;;;;1999.90;999.90;;;;;;;22.22;16.20;96516.56;5155424;27;20054;-63
2024/02/06 11:10:17;;;;;;;1999.90;999.90;;;;;;;22.30;16.61;96504.41;5155241;27;20095;-64
2024/02/06 11:12:53;;;;;;;1999.90;999.90;;;;;;;22.34;16.12;96511.19;5155024;27;20082;-65
2024/02/06 11:15:21;;;;;;;1999.90;999.90;;;;;;;22.16;16.07;96508.28;5155578;27;20082;-65